createdAt,value
2018-12-24T00:00:39.989Z,2.77
2018-12-24T00:03:10.614Z,2.00
2018-12-24T00:05:40.759Z,2.20
2018-12-24T00:08:11.046Z,2.00
2018-12-24T00:10:41.349Z,2.00
2018-12-24T00:13:11.620Z,1.77
2018-12-24T00:15:41.922Z,2.33
2018-12-24T00:18:12.557Z,4.73
2018-12-24T00:20:42.804Z,5.90
2018-12-24T00:23:13.096Z,6.53
2018-12-24T00:25:43.756Z,4.50
2018-12-24T00:28:15.563Z,3.50
2018-12-24T00:30:45.803Z,1.90
2018-12-24T00:33:16.038Z,1.90
2018-12-24T00:35:46.314Z,1.93
2018-12-24T00:38:16.800Z,1.90
2018-12-24T00:40:47.257Z,2.10
2018-12-24T00:43:17.591Z,1.57
2018-12-24T00:45:47.884Z,1.80
2018-12-24T00:48:18.627Z,1.97
2018-12-24T00:50:48.950Z,1.70
2018-12-24T00:53:19.051Z,1.70
2018-12-24T00:55:49.332Z,1.67
2018-12-24T00:58:19.618Z,2.03
2018-12-24T01:00:49.820Z,1.77
2018-12-24T01:03:20.127Z,2.07
2018-12-24T01:05:50.286Z,2.00
2018-12-24T01:08:20.515Z,1.80
2018-12-24T01:10:50.994Z,2.60
2018-12-24T01:13:20.964Z,2.60
2018-12-24T01:15:50.921Z,2.10
2018-12-24T01:18:21.048Z,2.17
2018-12-24T01:20:51.758Z,2.00
2018-12-24T01:23:21.953Z,2.57
2018-12-24T01:25:52.441Z,2.20
2018-12-24T01:28:22.743Z,2.33
2018-12-24T01:30:52.831Z,2.37
2018-12-24T01:33:23.005Z,2.23
2018-12-24T01:35:53.404Z,2.43
2018-12-24T01:38:23.906Z,3.93
2018-12-24T01:40:54.134Z,5.60
2018-12-24T01:43:24.517Z,10.83
2018-12-24T01:45:54.587Z,14.10
2018-12-24T01:48:24.895Z,9.63
2018-12-24T01:50:55.397Z,14.67
2018-12-24T01:53:25.887Z,10.07
2018-12-24T01:55:56.079Z,5.57
2018-12-24T01:58:26.315Z,5.00
2018-12-24T02:00:56.578Z,9.73
2018-12-24T02:03:26.749Z,9.63
2018-12-24T02:05:56.999Z,9.43
2018-12-24T02:08:27.240Z,9.47
2018-12-24T02:10:57.551Z,8.43
2018-12-24T02:13:27.868Z,5.70
2018-12-24T02:15:58.346Z,4.33
2018-12-24T02:18:28.618Z,4.20
2018-12-24T02:20:58.947Z,3.23
2018-12-24T02:23:29.317Z,3.97
2018-12-24T02:25:59.594Z,4.07
2018-12-24T02:28:29.929Z,3.53
2018-12-24T02:31:01.302Z,3.37
2018-12-24T02:33:31.598Z,3.50
2018-12-24T02:36:01.819Z,3.27
2018-12-24T02:38:32.111Z,3.80
2018-12-24T02:41:02.151Z,3.77
2018-12-24T02:43:32.531Z,4.20
2018-12-24T02:46:02.822Z,10.90
2018-12-24T02:48:33.153Z,23.57
2018-12-24T02:51:03.339Z,14.53
2018-12-24T02:53:33.801Z,31.10
2018-12-24T02:56:04.020Z,28.07
2018-12-24T02:58:34.283Z,26.23
2018-12-24T03:01:04.384Z,18.70
2018-12-24T03:03:34.596Z,20.67
2018-12-24T03:06:05.570Z,14.70
2018-12-24T03:08:35.999Z,13.87
2018-12-24T03:11:06.090Z,7.30
2018-12-24T03:13:36.428Z,6.93
2018-12-24T03:16:07.060Z,7.93
2018-12-24T03:18:37.335Z,10.43
2018-12-24T03:21:07.477Z,8.53
2018-12-24T03:23:37.969Z,12.70
2018-12-24T03:26:08.241Z,15.97
2018-12-24T03:28:38.577Z,19.33
2018-12-24T03:31:08.842Z,15.80
2018-12-24T03:33:39.017Z,13.80
2018-12-24T03:36:09.410Z,13.17
2018-12-24T03:38:39.733Z,9.80
2018-12-24T03:41:09.882Z,11.33
2018-12-24T03:43:40.340Z,10.70
2018-12-24T03:46:10.717Z,13.37
2018-12-24T03:48:40.793Z,11.93
2018-12-24T03:51:11.001Z,13.47
2018-12-24T03:53:41.281Z,11.93
2018-12-24T03:56:11.348Z,10.73
2018-12-24T03:58:41.474Z,7.80
2018-12-24T04:01:11.817Z,7.20
2018-12-24T04:03:42.220Z,7.07
2018-12-24T04:06:12.445Z,5.47
2018-12-24T04:08:42.602Z,4.97
2018-12-24T04:11:12.795Z,5.20
2018-12-24T04:13:43.195Z,5.70
2018-12-24T04:16:13.466Z,4.43
2018-12-24T04:18:43.670Z,5.07
2018-12-24T04:21:13.777Z,5.00
2018-12-24T04:23:44.166Z,5.37
2018-12-24T04:26:15.593Z,6.30
2018-12-24T04:28:46.177Z,7.40
2018-12-24T04:31:16.421Z,12.60
2018-12-24T04:33:46.695Z,11.50
2018-12-24T04:36:17.171Z,10.13
2018-12-24T04:38:47.394Z,10.30
2018-12-24T04:41:17.873Z,7.50
2018-12-24T04:43:48.031Z,6.23
2018-12-24T04:46:18.486Z,7.47
2018-12-24T04:48:48.576Z,6.03
2018-12-24T04:51:18.803Z,6.83
2018-12-24T04:53:49.050Z,6.53
2018-12-24T04:56:19.231Z,6.10
2018-12-24T04:58:49.282Z,7.57
2018-12-24T05:01:19.406Z,5.83
2018-12-24T05:03:49.936Z,5.50
2018-12-24T05:06:20.159Z,5.23
2018-12-24T05:08:50.711Z,6.53
2018-12-24T05:11:20.971Z,5.13
2018-12-24T05:13:51.230Z,6.07
2018-12-24T05:16:21.549Z,5.47
2018-12-24T05:18:51.831Z,4.90
2018-12-24T05:21:22.018Z,4.73
2018-12-24T05:23:52.358Z,3.97
2018-12-24T05:26:22.413Z,4.70
2018-12-24T05:28:52.673Z,4.07
2018-12-24T05:31:24.159Z,4.43
2018-12-24T05:33:54.398Z,4.90
2018-12-24T05:36:24.598Z,4.90
2018-12-24T05:38:54.722Z,4.53
2018-12-24T05:41:24.993Z,5.03
2018-12-24T05:43:54.955Z,5.50
2018-12-24T05:46:25.485Z,6.67
2018-12-24T05:48:55.750Z,6.70
2018-12-24T05:51:26.037Z,6.43
2018-12-24T05:53:56.262Z,5.60
2018-12-24T05:56:26.519Z,5.93
2018-12-24T05:58:57.128Z,5.10
2018-12-24T06:01:27.442Z,6.03
2018-12-24T06:03:57.699Z,6.03
2018-12-24T06:06:28.089Z,5.63
2018-12-24T06:08:58.220Z,5.93
2018-12-24T06:11:28.425Z,5.50
2018-12-24T06:13:58.984Z,5.13
2018-12-24T06:16:29.212Z,5.30
2018-12-24T06:18:59.666Z,5.40
2018-12-24T06:21:30.065Z,4.27
2018-12-24T06:24:00.178Z,4.43
2018-12-24T06:26:31.588Z,5.00
2018-12-24T06:29:01.953Z,4.20
2018-12-24T06:31:32.586Z,4.40
2018-12-24T06:34:02.840Z,4.57
2018-12-24T06:36:33.241Z,5.03
2018-12-24T06:39:05.832Z,4.50
2018-12-24T06:41:36.336Z,3.77
2018-12-24T06:44:07.113Z,3.70
2018-12-24T06:46:37.420Z,3.90
2018-12-24T06:49:07.783Z,3.70
2018-12-24T06:51:38.684Z,3.57
2018-12-24T06:54:08.806Z,3.47
2018-12-24T06:56:39.495Z,3.97
2018-12-24T06:59:09.923Z,4.00
2018-12-24T07:01:39.978Z,4.00
2018-12-24T07:04:10.478Z,4.43
2018-12-24T07:06:40.775Z,5.73
2018-12-24T07:09:10.862Z,5.23
2018-12-24T07:11:41.186Z,5.60
2018-12-24T07:14:15.534Z,5.73
2018-12-24T07:16:43.827Z,4.87
2018-12-24T07:19:14.228Z,6.25
2018-12-24T07:21:45.786Z,5.97
2018-12-24T07:24:16.052Z,6.63
2018-12-24T07:26:46.249Z,7.83
2018-12-24T07:29:16.443Z,9.60
2018-12-24T07:31:46.871Z,9.27
2018-12-24T07:34:17.144Z,11.07
2018-12-24T07:36:47.227Z,11.70
2018-12-24T07:39:17.446Z,10.90
2018-12-24T07:41:47.937Z,10.80
2018-12-24T07:44:24.075Z,13.00
2018-12-24T07:46:50.259Z,15.33
2018-12-24T07:49:20.747Z,14.90
2018-12-24T07:51:50.897Z,17.77
2018-12-24T07:54:21.138Z,16.73
2018-12-24T07:56:51.421Z,16.27
2018-12-24T07:59:21.593Z,14.23
2018-12-24T08:01:51.717Z,13.40
2018-12-24T08:04:22.069Z,16.37
2018-12-24T08:06:52.344Z,14.70
2018-12-24T08:09:22.627Z,13.70
2018-12-24T08:11:52.899Z,11.73
2018-12-24T08:14:23.340Z,10.73
2018-12-24T08:16:55.054Z,11.57
2018-12-24T08:19:25.324Z,10.57
2018-12-24T08:21:55.656Z,10.63
2018-12-24T08:24:26.135Z,11.30
2018-12-24T08:26:56.299Z,11.30
2018-12-24T08:29:26.793Z,12.43
2018-12-24T08:31:56.856Z,12.83
2018-12-24T08:34:27.187Z,14.60
2018-12-24T08:36:57.566Z,20.70
2018-12-24T08:39:27.823Z,17.40
2018-12-24T08:41:57.992Z,16.60
2018-12-24T08:44:28.106Z,17.93
2018-12-24T08:46:58.198Z,15.67
2018-12-24T08:49:28.465Z,13.63
2018-12-24T08:51:58.740Z,12.30
2018-12-24T08:54:29.061Z,12.83
2018-12-24T08:56:59.872Z,12.67
2018-12-24T08:59:29.929Z,15.83
2018-12-24T09:02:01.723Z,21.97
2018-12-24T09:04:31.762Z,18.67
2018-12-24T09:07:02.088Z,19.30
2018-12-24T09:09:32.161Z,23.00
2018-12-24T09:12:02.376Z,21.57
2018-12-24T09:14:32.742Z,16.37
2018-12-24T09:17:02.947Z,15.20
2018-12-24T09:19:33.364Z,17.17
2018-12-24T09:22:04.885Z,17.20
2018-12-24T09:24:36.448Z,18.43
2018-12-24T09:27:06.960Z,19.73
2018-12-24T09:29:37.213Z,14.47
2018-12-24T09:32:07.432Z,14.17
2018-12-24T09:34:37.726Z,18.63
2018-12-24T09:37:07.883Z,21.10
2018-12-24T09:39:38.427Z,15.93
2018-12-24T09:42:09.014Z,18.77
2018-12-24T09:44:39.303Z,22.83
2018-12-24T09:47:09.443Z,18.87
2018-12-24T09:49:39.527Z,22.10
2018-12-24T09:52:09.843Z,31.50
2018-12-24T09:54:40.117Z,26.37
2018-12-24T09:57:10.416Z,21.03
2018-12-24T10:00:20.080Z,17.47
2018-12-24T10:02:59.392Z,15.47
2018-12-24T10:05:30.150Z,16.70
2018-12-24T10:08:02.800Z,13.80
2018-12-24T10:10:33.017Z,16.07
2018-12-24T10:13:04.091Z,27.27
2018-12-24T10:15:33.983Z,35.77
2018-12-24T10:18:03.685Z,29.10
2018-12-24T10:20:33.536Z,25.67
2018-12-24T10:23:03.202Z,25.97
2018-12-24T10:25:33.124Z,20.23
2018-12-24T10:28:03.074Z,19.70
2018-12-24T10:30:32.852Z,18.27
2018-12-24T10:33:02.570Z,13.90
2018-12-24T10:35:33.666Z,14.43
2018-12-24T10:38:03.433Z,15.07
2018-12-24T10:40:36.117Z,14.60
2018-12-24T10:43:05.883Z,12.23
2018-12-24T10:45:35.750Z,12.33
2018-12-24T10:48:05.691Z,13.20
2018-12-24T10:50:35.562Z,12.90
2018-12-24T10:53:05.599Z,12.10
2018-12-24T10:55:35.402Z,12.77
2018-12-24T10:58:05.377Z,12.43
2018-12-24T11:00:35.127Z,11.67
2018-12-24T11:03:04.961Z,10.43
2018-12-24T11:05:34.936Z,11.30
2018-12-24T11:08:04.795Z,10.97
2018-12-24T11:10:34.590Z,12.90
2018-12-24T11:13:05.561Z,11.73
2018-12-24T11:15:35.243Z,11.77
2018-12-24T11:18:04.956Z,11.03
2018-12-24T11:20:34.820Z,12.37
2018-12-24T11:23:04.810Z,11.10
2018-12-24T11:25:34.517Z,11.53
2018-12-24T11:28:05.552Z,15.77
2018-12-24T11:30:35.369Z,14.50
2018-12-24T11:33:05.173Z,14.80
2018-12-24T11:35:35.021Z,16.23
2018-12-24T11:38:04.787Z,14.80
2018-12-24T11:40:34.717Z,11.97
2018-12-24T11:43:04.673Z,15.40
2018-12-24T11:45:36.046Z,13.60
2018-12-24T11:48:06.141Z,19.17
2018-12-24T11:50:35.999Z,20.50
2018-12-24T11:53:05.737Z,22.17
2018-12-24T11:55:35.447Z,20.70
2018-12-24T11:58:13.405Z,19.70
2018-12-24T12:00:38.296Z,19.33
2018-12-24T12:03:07.978Z,17.43
2018-12-24T12:05:37.838Z,16.93
2018-12-24T12:08:07.675Z,23.37
2018-12-24T12:10:38.552Z,15.93
2018-12-24T12:13:08.332Z,14.40
2018-12-24T12:15:42.763Z,14.20
2018-12-24T12:18:10.549Z,14.23
2018-12-24T12:20:40.314Z,13.50
2018-12-24T12:23:09.956Z,14.67
2018-12-24T12:25:39.786Z,18.00
2018-12-24T12:28:09.643Z,21.97
2018-12-24T12:30:39.419Z,26.03
2018-12-24T12:33:09.536Z,18.43
2018-12-24T12:35:39.490Z,19.63
2018-12-24T12:38:09.253Z,15.60
2018-12-24T12:40:38.970Z,13.60
2018-12-24T12:43:08.821Z,14.13
2018-12-24T12:45:38.709Z,17.50
2018-12-24T12:48:08.564Z,14.93
2018-12-24T12:50:38.227Z,16.30
2018-12-24T12:53:08.032Z,20.43
2018-12-24T12:55:37.801Z,28.10
2018-12-24T12:58:07.558Z,34.80
2018-12-24T13:00:37.316Z,23.93
2018-12-24T13:03:07.093Z,28.40
2018-12-24T13:05:37.019Z,34.67
2018-12-24T13:08:06.994Z,34.47
2018-12-24T13:10:36.852Z,37.40
2018-12-24T13:13:06.748Z,31.40
2018-12-24T13:15:37.545Z,23.33
2018-12-24T13:18:07.358Z,15.07
2018-12-24T13:20:37.435Z,13.10
2018-12-24T13:23:07.335Z,10.90
2018-12-24T13:25:37.436Z,9.93
2018-12-24T13:28:07.236Z,10.90
2018-12-24T13:30:36.898Z,9.30
2018-12-24T13:33:06.759Z,10.80
2018-12-24T13:35:36.526Z,10.90
2018-12-24T13:38:06.323Z,14.10
2018-12-24T13:40:36.204Z,13.30
2018-12-24T13:43:05.957Z,12.03
2018-12-24T13:45:35.893Z,13.00
2018-12-24T13:48:05.746Z,12.23
2018-12-24T13:50:35.503Z,11.20
2018-12-24T13:53:05.478Z,11.63
2018-12-24T13:55:35.231Z,12.80
2018-12-24T13:58:05.045Z,12.67
2018-12-24T14:00:35.135Z,13.10
2018-12-24T14:03:04.890Z,13.60
2018-12-24T14:05:34.740Z,13.57
2018-12-24T14:08:04.520Z,14.40
2018-12-24T14:10:34.484Z,14.40
2018-12-24T14:13:04.233Z,13.80
2018-12-24T14:15:34.054Z,14.60
2018-12-24T14:18:04.021Z,13.87
2018-12-24T14:20:35.226Z,13.27
2018-12-24T14:23:05.130Z,13.70
2018-12-24T14:25:38.265Z,12.43
2018-12-24T14:28:06.708Z,11.23
2018-12-24T14:30:36.534Z,12.23
2018-12-24T14:33:06.378Z,10.90
2018-12-24T14:35:36.247Z,11.17
2018-12-24T14:38:06.291Z,10.87
2018-12-24T14:40:35.993Z,10.63
2018-12-24T14:43:05.953Z,11.80
2018-12-24T14:45:35.731Z,12.03
2018-12-24T14:48:05.467Z,12.23
2018-12-24T14:50:35.197Z,10.80
2018-12-24T14:53:05.133Z,11.40
2018-12-24T14:55:35.198Z,10.43
2018-12-24T14:58:05.238Z,11.07
2018-12-24T15:00:35.223Z,10.33
2018-12-24T15:03:05.055Z,10.03
2018-12-24T15:05:34.790Z,10.23
2018-12-24T15:08:04.688Z,9.63
2018-12-24T15:10:34.642Z,9.47
2018-12-24T15:13:04.382Z,10.80
2018-12-24T15:15:35.542Z,10.53
2018-12-24T15:18:05.420Z,10.47
2018-12-24T15:20:35.162Z,10.90
2018-12-24T15:23:04.979Z,10.93
2018-12-24T15:25:34.980Z,10.90
2018-12-24T15:28:04.909Z,10.77
2018-12-24T15:30:34.848Z,12.37
2018-12-24T15:33:04.888Z,12.20
2018-12-24T15:35:34.650Z,11.87
2018-12-24T15:38:04.670Z,12.10
2018-12-24T15:40:34.547Z,12.53
2018-12-24T15:43:04.304Z,11.70
2018-12-24T15:45:35.364Z,11.97
2018-12-24T15:48:05.183Z,13.03
2018-12-24T15:50:35.033Z,13.00
2018-12-24T15:53:04.896Z,12.83
2018-12-24T15:55:34.823Z,12.70
2018-12-24T15:58:04.887Z,13.23
2018-12-24T16:00:34.642Z,11.93
2018-12-24T16:03:04.464Z,12.27
2018-12-24T16:05:34.208Z,11.53
2018-12-24T16:08:04.138Z,10.37
2018-12-24T16:10:33.811Z,10.73
2018-12-24T16:13:03.636Z,12.10
2018-12-24T16:15:33.836Z,11.00
2018-12-24T16:18:03.748Z,10.00
2018-12-24T16:20:33.561Z,10.97
2018-12-24T16:23:03.390Z,11.10
2018-12-24T16:25:34.450Z,10.80
2018-12-24T16:28:04.391Z,9.80
2018-12-24T16:30:34.168Z,9.77
2018-12-24T16:33:03.977Z,9.63
2018-12-24T16:35:33.951Z,8.90
2018-12-24T16:38:03.820Z,8.53
2018-12-24T16:40:33.633Z,8.93
2018-12-24T16:43:03.397Z,8.77
2018-12-24T16:45:33.037Z,8.17
2018-12-24T16:48:03.469Z,8.00
2018-12-24T16:50:34.421Z,8.67
2018-12-24T16:53:04.235Z,7.60
2018-12-24T16:55:34.070Z,9.17
2018-12-24T16:58:04.115Z,10.37
2018-12-24T17:00:34.097Z,10.77
2018-12-24T17:03:04.119Z,11.40
2018-12-24T17:05:35.458Z,9.97
2018-12-24T17:08:05.275Z,9.67
2018-12-24T17:10:35.029Z,10.17
2018-12-24T17:13:04.686Z,9.47
2018-12-24T17:15:34.620Z,10.33
2018-12-24T17:18:04.668Z,10.07
2018-12-24T17:20:34.437Z,11.17
2018-12-24T17:23:05.511Z,10.03
2018-12-24T17:25:36.259Z,11.63
2018-12-24T17:28:06.043Z,12.57
2018-12-24T17:30:35.864Z,9.83
2018-12-24T17:33:05.619Z,11.40
2018-12-24T17:35:35.363Z,9.63
2018-12-24T17:38:05.281Z,9.13
2018-12-24T17:40:35.272Z,8.77
2018-12-24T17:43:05.026Z,7.77
2018-12-24T17:45:34.914Z,7.63
2018-12-24T17:48:04.865Z,7.53
2018-12-24T17:50:34.559Z,7.30
2018-12-24T17:53:04.345Z,7.63
2018-12-24T17:55:34.203Z,8.20
2018-12-24T17:58:04.222Z,8.17
2018-12-24T18:00:34.266Z,7.73
2018-12-24T18:03:04.063Z,7.23
2018-12-24T18:05:34.074Z,6.50
2018-12-24T18:08:03.919Z,7.27
2018-12-24T18:10:33.745Z,7.73
2018-12-24T18:13:03.547Z,8.07
2018-12-24T18:15:33.489Z,7.43
2018-12-24T18:18:03.302Z,8.33
2018-12-24T18:20:32.962Z,9.40
2018-12-24T18:23:02.800Z,10.17
2018-12-24T18:25:32.704Z,7.53
2018-12-24T18:28:02.693Z,12.90
2018-12-24T18:30:32.481Z,13.30
2018-12-24T18:33:02.226Z,11.27
2018-12-24T18:35:33.388Z,11.63
2018-12-24T18:38:03.328Z,10.90
2018-12-24T18:40:33.208Z,11.07
2018-12-24T18:43:03.017Z,12.33
2018-12-24T18:45:33.190Z,10.93
2018-12-24T18:48:03.041Z,9.17
2018-12-24T18:50:33.180Z,10.93
2018-12-24T18:53:03.051Z,12.10
2018-12-24T18:55:32.806Z,11.23
2018-12-24T18:58:02.656Z,13.93
2018-12-24T19:00:32.426Z,10.83
2018-12-24T19:03:02.247Z,13.00
2018-12-24T19:05:32.195Z,6.60
2018-12-24T19:08:02.011Z,9.03
2018-12-24T19:10:31.901Z,8.67
2018-12-24T19:13:02.854Z,10.50
2018-12-24T19:15:32.746Z,10.70
2018-12-24T19:18:02.630Z,16.93
2018-12-24T19:20:32.630Z,17.53
2018-12-24T19:23:02.455Z,17.30
2018-12-24T19:25:32.322Z,14.37
2018-12-24T19:28:02.006Z,20.77
2018-12-24T19:30:32.934Z,18.97
2018-12-24T19:33:05.577Z,16.67
2018-12-24T19:35:35.356Z,12.87
2018-12-24T19:38:05.168Z,7.67
2018-12-24T19:40:34.933Z,7.73
2018-12-24T19:43:04.690Z,7.13
2018-12-24T19:45:34.588Z,7.57
2018-12-24T19:48:04.330Z,6.67
2018-12-24T19:50:34.135Z,6.00
2018-12-24T19:53:04.001Z,6.67
2018-12-24T19:55:33.664Z,7.23
2018-12-24T19:58:03.489Z,6.43
2018-12-24T20:00:33.329Z,8.77
2018-12-24T20:03:03.114Z,6.73
2018-12-24T20:05:33.599Z,5.63
2018-12-24T20:08:03.304Z,5.53
2018-12-24T20:10:32.957Z,5.00
2018-12-24T20:13:02.833Z,4.70
2018-12-24T20:15:32.843Z,7.00
2018-12-24T20:18:02.643Z,8.97
2018-12-24T20:20:32.438Z,11.20
2018-12-24T20:23:02.597Z,6.93
2018-12-24T20:25:32.584Z,4.60
2018-12-24T20:28:02.383Z,5.07
2018-12-24T20:30:32.192Z,5.27
2018-12-24T20:33:02.154Z,5.73
2018-12-24T20:35:32.139Z,5.37
2018-12-24T20:38:01.937Z,5.53
2018-12-24T20:40:31.890Z,6.57
2018-12-24T20:43:02.928Z,5.70
2018-12-24T20:45:32.712Z,5.80
2018-12-24T20:48:06.575Z,5.03
2018-12-24T20:50:34.126Z,5.50
2018-12-24T20:53:04.002Z,5.00
2018-12-24T20:55:33.625Z,5.33
2018-12-24T20:58:03.475Z,6.17
2018-12-24T21:00:33.229Z,5.27
2018-12-24T21:03:02.887Z,4.97
2018-12-24T21:05:32.869Z,4.40
2018-12-24T21:08:02.571Z,3.10
2018-12-24T21:10:32.346Z,1.50
2018-12-24T21:13:02.158Z,0.90
2018-12-24T21:15:31.812Z,0.70
2018-12-24T21:18:01.628Z,0.30
2018-12-24T21:20:31.506Z,0.60
2018-12-24T21:23:01.250Z,0.60
2018-12-24T21:25:31.168Z,0.43
2018-12-24T21:28:01.140Z,0.30
2018-12-24T21:30:31.004Z,0.40
2018-12-24T21:33:00.935Z,0.47
2018-12-24T21:35:31.979Z,0.60
2018-12-24T21:38:01.674Z,0.50
2018-12-24T21:40:31.561Z,0.30
2018-12-24T21:43:01.843Z,0.50
2018-12-24T21:45:31.638Z,0.50
2018-12-24T21:48:01.394Z,0.47
2018-12-24T21:50:31.204Z,0.70
2018-12-24T21:53:01.074Z,0.60
2018-12-24T21:55:30.922Z,0.70
2018-12-24T21:58:00.842Z,0.50
2018-12-24T22:00:30.713Z,0.80
2018-12-24T22:03:00.429Z,0.63
2018-12-24T22:05:30.300Z,0.70
2018-12-24T22:08:00.075Z,0.50
2018-12-24T22:10:29.769Z,0.60
2018-12-24T22:12:59.545Z,0.90
2018-12-24T22:15:29.493Z,0.70
2018-12-24T22:17:59.432Z,0.80
2018-12-24T22:20:30.478Z,0.90
2018-12-24T22:23:00.305Z,0.83
2018-12-24T22:25:30.180Z,0.70
2018-12-24T22:27:59.850Z,0.60
2018-12-24T22:30:29.612Z,0.80
2018-12-24T22:32:59.329Z,0.90
2018-12-24T22:35:29.376Z,0.80
2018-12-24T22:38:00.495Z,1.10
2018-12-24T22:40:30.217Z,0.90
2018-12-24T22:43:00.105Z,0.73
2018-12-24T22:45:29.846Z,1.10
2018-12-24T22:47:59.656Z,1.00
2018-12-24T22:50:29.916Z,1.00
2018-12-24T22:52:59.608Z,1.03
2018-12-24T22:55:29.289Z,1.20
2018-12-24T22:57:59.132Z,0.90
2018-12-24T23:00:48.571Z,1.10
2018-12-24T23:03:18.444Z,1.00
2018-12-24T23:05:48.243Z,0.80
2018-12-24T23:08:18.030Z,1.00
2018-12-24T23:10:47.959Z,0.70
2018-12-24T23:13:17.821Z,0.90
2018-12-24T23:15:47.569Z,1.07
2018-12-24T23:18:17.564Z,1.03
2018-12-24T23:20:47.419Z,1.30
2018-12-24T23:23:17.343Z,1.00
2018-12-24T23:25:47.288Z,1.03
2018-12-24T23:28:17.154Z,1.07
2018-12-24T23:30:47.071Z,0.90
2018-12-24T23:33:17.056Z,0.73
2018-12-24T23:35:46.934Z,0.57
2018-12-24T23:38:16.713Z,0.60
2018-12-24T23:40:46.794Z,0.60
2018-12-24T23:43:16.695Z,0.70
2018-12-24T23:45:46.573Z,0.83
2018-12-24T23:48:16.578Z,1.00
2018-12-24T23:50:46.444Z,1.03
2018-12-24T23:53:16.322Z,0.80
2018-12-24T23:55:46.175Z,1.20
2018-12-24T23:58:15.855Z,0.90
